createdAt,value
2023-01-18T00:00:47.689Z,16.85
2023-01-18T00:03:14.588Z,17.55
2023-01-18T00:05:41.950Z,19.13
2023-01-18T00:08:13.256Z,17.75
2023-01-18T00:10:40.368Z,18.67
2023-01-18T00:13:07.193Z,18.65
2023-01-18T00:15:37.061Z,19.10
2023-01-18T00:18:04.191Z,18.80
2023-01-18T00:20:31.706Z,19.48
2023-01-18T00:23:02.233Z,19.17
2023-01-18T00:25:29.981Z,18.75
2023-01-18T00:27:57.098Z,18.55
2023-01-18T00:30:27.239Z,19.20
2023-01-18T00:32:56.678Z,17.33
2023-01-18T00:35:24.469Z,18.40
2023-01-18T00:37:52.464Z,19.23
2023-01-18T00:40:20.337Z,17.58
2023-01-18T00:43:05.979Z,17.45
2023-01-18T00:45:32.748Z,17.83
2023-01-18T00:47:59.396Z,18.02
2023-01-18T00:50:26.081Z,18.33
2023-01-18T00:52:56.919Z,18.05
2023-01-18T00:55:24.102Z,18.30
2023-01-18T00:57:50.792Z,19.08
2023-01-18T01:00:19.750Z,18.23
2023-01-18T01:02:46.512Z,17.25
2023-01-18T01:05:40.961Z,17.30
2023-01-18T01:08:07.862Z,18.55
2023-01-18T01:10:35.159Z,17.58
2023-01-18T01:13:20.750Z,16.80
2023-01-18T01:16:05.866Z,18.10
2023-01-18T01:18:51.219Z,18.35
2023-01-18T01:21:36.415Z,18.20
2023-01-18T01:24:21.589Z,17.85
2023-01-18T01:26:48.187Z,16.98
2023-01-18T01:29:15.957Z,18.05
2023-01-18T01:31:42.716Z,17.60
2023-01-18T01:34:09.811Z,18.60
2023-01-18T01:36:36.494Z,17.02
2023-01-18T01:39:03.264Z,18.45
2023-01-18T01:41:32.794Z,19.35
2023-01-18T01:46:46.638Z,17.35
2023-01-18T01:49:19.690Z,17.75
2023-01-18T01:51:50.346Z,16.90
2023-01-18T01:54:23.653Z,17.50
2023-01-18T01:56:54.876Z,17.63
2023-01-18T01:59:22.050Z,17.40
2023-01-18T02:01:49.654Z,16.95
2023-01-18T02:04:16.525Z,18.08
2023-01-18T02:06:43.103Z,17.50
2023-01-18T02:09:16.077Z,17.80
2023-01-18T02:11:43.468Z,16.63
2023-01-18T02:14:15.665Z,17.23
2023-01-18T02:17:06.506Z,16.17
2023-01-18T02:19:45.080Z,18.95
2023-01-18T02:22:11.582Z,17.13
2023-01-18T02:25:12.234Z,15.25
2023-01-18T02:27:51.582Z,16.75
2023-01-18T02:30:31.901Z,15.23
2023-01-18T02:33:05.125Z,16.95
2023-01-18T02:35:56.119Z,16.05
2023-01-18T02:38:44.246Z,16.27
2023-01-18T02:41:45.459Z,16.02
2023-01-18T02:44:34.051Z,16.38
2023-01-18T02:47:01.109Z,16.87
2023-01-18T02:49:32.118Z,16.27
2023-01-18T02:52:07.297Z,16.30
2023-01-18T02:54:40.166Z,16.80
2023-01-18T02:57:13.509Z,15.77
2023-01-18T02:59:48.293Z,16.52
2023-01-18T03:02:17.023Z,15.75
2023-01-18T03:04:54.190Z,16.55
2023-01-18T03:07:26.868Z,16.40
2023-01-18T03:09:54.265Z,17.45
2023-01-18T03:12:46.088Z,16.63
2023-01-18T03:15:22.033Z,15.40
2023-01-18T03:17:53.179Z,16.67
2023-01-18T03:20:25.749Z,16.80
2023-01-18T03:23:22.911Z,15.00
2023-01-18T03:25:51.397Z,16.15
2023-01-18T03:28:51.909Z,13.10
2023-01-18T03:31:43.170Z,17.20
2023-01-18T03:34:38.391Z,17.42
2023-01-18T03:37:10.603Z,16.88
2023-01-18T03:39:42.785Z,17.35
2023-01-18T03:42:14.392Z,16.73
2023-01-18T03:45:03.736Z,16.05
2023-01-18T03:47:30.705Z,16.20
2023-01-18T03:49:58.139Z,16.63
2023-01-18T03:52:28.482Z,17.95
2023-01-18T03:55:03.465Z,16.83
2023-01-18T03:57:38.413Z,16.63
2023-01-18T04:00:07.314Z,17.33
2023-01-18T04:02:39.551Z,16.83
2023-01-18T04:05:07.121Z,17.02
2023-01-18T04:07:33.774Z,17.05
2023-01-18T04:10:00.705Z,16.30
2023-01-18T04:12:28.494Z,18.30
2023-01-18T04:14:55.080Z,15.63
2023-01-18T04:17:21.714Z,16.30
2023-01-18T04:19:48.242Z,16.50
2023-01-18T04:22:14.899Z,16.48
2023-01-18T04:24:41.450Z,16.23
2023-01-18T04:27:08.382Z,16.05
2023-01-18T04:29:35.131Z,16.13
2023-01-18T04:32:02.161Z,15.98
2023-01-18T04:34:28.705Z,15.65
2023-01-18T04:36:55.330Z,15.73
2023-01-18T04:39:21.853Z,15.05
2023-01-18T04:41:48.500Z,15.95
2023-01-18T04:44:16.165Z,15.27
2023-01-18T04:46:43.000Z,14.38
2023-01-18T04:49:15.648Z,16.05
2023-01-18T04:51:44.103Z,15.88
2023-01-18T04:54:12.344Z,14.60
2023-01-18T04:56:39.327Z,15.32
2023-01-18T04:59:05.956Z,14.95
2023-01-18T05:01:33.389Z,15.02
2023-01-18T05:04:00.106Z,14.75
2023-01-18T05:06:27.142Z,15.32
2023-01-18T05:08:53.729Z,16.98
2023-01-18T05:11:23.151Z,15.75
2023-01-18T05:16:19.631Z,15.45
2023-01-18T05:18:47.111Z,15.80
2023-01-18T05:21:14.282Z,15.68
2023-01-18T05:23:41.414Z,16.08
2023-01-18T05:26:14.692Z,16.60
2023-01-18T05:28:42.473Z,16.42
2023-01-18T05:31:09.613Z,16.02
2023-01-18T05:33:36.465Z,17.30
2023-01-18T05:36:03.465Z,17.67
2023-01-18T05:38:30.381Z,17.38
2023-01-18T05:40:57.401Z,16.23
2023-01-18T05:43:26.180Z,16.67
2023-01-18T05:45:53.975Z,16.45
2023-01-18T05:48:21.765Z,15.20
2023-01-18T05:50:49.127Z,15.25
2023-01-18T05:53:20.124Z,15.98
2023-01-18T05:56:01.150Z,15.95
2023-01-18T05:58:28.321Z,15.52
2023-01-18T06:00:55.543Z,14.38
2023-01-18T06:03:23.239Z,15.73
2023-01-18T06:05:51.416Z,15.10
2023-01-18T06:08:18.699Z,15.02
2023-01-18T06:10:53.314Z,15.65
2023-01-18T06:13:20.462Z,15.77
2023-01-18T06:15:49.545Z,15.27
2023-01-18T06:18:16.271Z,16.42
2023-01-18T06:20:43.232Z,17.58
2023-01-18T06:23:09.866Z,17.35
2023-01-18T06:25:37.230Z,18.60
2023-01-18T06:28:05.081Z,18.45
2023-01-18T06:30:33.549Z,19.95
2023-01-18T06:33:04.908Z,18.88
2023-01-18T06:35:31.485Z,18.60
2023-01-18T06:37:58.273Z,17.42
2023-01-18T06:40:25.028Z,17.13
2023-01-18T06:42:51.854Z,15.45
2023-01-18T06:45:21.950Z,15.52
2023-01-18T06:47:49.472Z,17.23
2023-01-18T06:50:16.568Z,15.50
2023-01-18T06:52:44.543Z,18.33
2023-01-18T06:55:13.200Z,15.35
2023-01-18T06:57:40.031Z,15.20
2023-01-18T07:00:08.366Z,14.70
2023-01-18T07:02:36.419Z,14.95
2023-01-18T07:05:03.896Z,15.32
2023-01-18T07:07:30.893Z,14.63
2023-01-18T07:09:57.647Z,14.80
2023-01-18T07:12:24.336Z,15.57
2023-01-18T07:14:51.169Z,15.85
2023-01-18T07:17:17.845Z,16.25
2023-01-18T07:19:44.799Z,16.90
2023-01-18T07:22:13.180Z,17.38
2023-01-18T07:24:39.835Z,18.67
2023-01-18T07:27:06.531Z,19.27
2023-01-18T07:29:33.229Z,17.25
2023-01-18T07:32:01.061Z,17.77
2023-01-18T07:34:27.797Z,18.40
2023-01-18T07:36:54.788Z,17.05
2023-01-18T07:39:21.408Z,16.27
2023-01-18T07:41:47.998Z,15.98
2023-01-18T07:44:17.547Z,16.95
2023-01-18T07:46:44.200Z,15.60
2023-01-18T07:49:10.965Z,16.85
2023-01-18T07:51:37.687Z,17.88
2023-01-18T07:54:04.328Z,17.10
2023-01-18T07:56:30.943Z,18.00
2023-01-18T07:58:57.559Z,18.00
2023-01-18T08:01:24.677Z,17.38
2023-01-18T08:03:53.521Z,17.88
2023-01-18T08:06:24.815Z,17.90
2023-01-18T08:08:52.231Z,16.15
2023-01-18T08:11:19.585Z,17.05
2023-01-18T08:13:48.890Z,17.73
2023-01-18T08:16:16.213Z,17.98
2023-01-18T08:18:45.153Z,17.55
2023-01-18T08:21:13.899Z,17.15
2023-01-18T08:23:41.084Z,13.80
2023-01-18T08:26:09.300Z,17.55
2023-01-18T08:28:36.127Z,18.42
2023-01-18T08:31:17.647Z,17.13
2023-01-18T08:33:46.928Z,17.33
2023-01-18T08:36:16.563Z,16.08
2023-01-18T08:38:43.408Z,17.55
2023-01-18T08:41:10.062Z,16.40
2023-01-18T08:43:36.846Z,17.00
2023-01-18T08:46:03.640Z,17.80
2023-01-18T08:48:30.334Z,17.38
2023-01-18T08:51:01.238Z,17.90
2023-01-18T08:53:29.486Z,17.55
2023-01-18T08:55:56.545Z,18.63
2023-01-18T08:58:23.143Z,17.15
2023-01-18T09:00:50.642Z,16.70
2023-01-18T09:03:25.834Z,16.98
2023-01-18T09:05:52.686Z,17.42
2023-01-18T09:08:19.245Z,18.35
2023-01-18T09:10:45.807Z,17.05
2023-01-18T09:13:12.540Z,16.65
2023-01-18T09:15:39.443Z,19.02
2023-01-18T09:18:08.079Z,18.80
2023-01-18T09:20:36.263Z,20.23
2023-01-18T09:23:07.767Z,18.98
2023-01-18T09:25:36.651Z,18.73
2023-01-18T09:28:05.095Z,21.15
2023-01-18T09:30:32.328Z,20.77
2023-01-18T09:32:59.533Z,22.08
2023-01-18T09:35:26.478Z,20.55
2023-01-18T09:37:55.184Z,20.75
2023-01-18T09:40:25.078Z,20.73
2023-01-18T09:42:52.718Z,20.35
2023-01-18T09:45:32.253Z,22.60
2023-01-18T09:50:45.161Z,20.52
2023-01-18T09:53:40.953Z,22.38
2023-01-18T09:56:09.763Z,22.23
2023-01-18T09:58:54.758Z,23.25
2023-01-18T10:01:27.305Z,24.73
2023-01-18T10:04:00.752Z,23.42
2023-01-18T10:06:32.483Z,24.45
2023-01-18T10:09:01.881Z,30.45
2023-01-18T10:11:36.512Z,25.20
2023-01-18T10:14:11.192Z,25.95
2023-01-18T10:16:38.056Z,27.13
2023-01-18T10:19:16.215Z,25.02
2023-01-18T10:22:19.540Z,26.42
2023-01-18T10:24:59.840Z,27.35
2023-01-18T10:27:41.542Z,25.00
2023-01-18T10:30:11.180Z,25.30
2023-01-18T10:32:39.045Z,26.52
2023-01-18T10:35:23.727Z,26.23
2023-01-18T10:37:52.319Z,25.35
2023-01-18T10:40:18.969Z,24.70
2023-01-18T10:42:48.373Z,29.40
2023-01-18T10:45:23.193Z,27.63
2023-01-18T10:47:51.949Z,28.45
2023-01-18T10:50:40.016Z,27.17
2023-01-18T10:53:31.557Z,26.25
2023-01-18T10:56:10.928Z,25.38
2023-01-18T10:59:00.389Z,26.10
2023-01-18T11:04:07.556Z,25.95
2023-01-18T11:06:53.699Z,27.10
2023-01-18T11:09:55.553Z,25.92
2023-01-18T11:12:41.036Z,26.15
2023-01-18T11:15:13.999Z,26.80
2023-01-18T11:18:00.260Z,27.15
2023-01-18T11:20:52.355Z,28.27
2023-01-18T11:23:23.194Z,27.60
2023-01-18T11:25:49.695Z,27.60
2023-01-18T11:28:24.020Z,26.25
2023-01-18T11:30:57.108Z,27.13
2023-01-18T11:33:26.225Z,27.85
2023-01-18T11:35:59.374Z,29.02
2023-01-18T11:38:28.651Z,27.65
2023-01-18T11:41:04.061Z,25.38
2023-01-18T11:43:33.480Z,24.23
2023-01-18T11:46:22.352Z,27.98
2023-01-18T11:49:00.619Z,28.83
2023-01-18T11:51:40.142Z,24.23
2023-01-18T11:56:56.160Z,24.23
2023-01-18T11:59:31.534Z,24.38
2023-01-18T12:02:16.860Z,24.05
2023-01-18T12:05:02.167Z,21.17
2023-01-18T12:07:34.813Z,22.02
2023-01-18T12:10:02.095Z,20.48
2023-01-18T12:12:31.619Z,19.98
2023-01-18T12:17:45.958Z,21.58
2023-01-18T12:20:24.611Z,20.88
2023-01-18T12:22:57.417Z,19.70
2023-01-18T12:25:24.050Z,19.73
2023-01-18T12:28:07.475Z,20.40
2023-01-18T12:31:02.967Z,19.55
2023-01-18T12:33:50.113Z,20.88
2023-01-18T12:36:22.153Z,19.08
2023-01-18T12:38:55.309Z,19.65
2023-01-18T12:41:31.547Z,17.33
2023-01-18T12:44:01.130Z,18.02
2023-01-18T12:49:11.351Z,16.52
2023-01-18T12:51:40.199Z,16.17
2023-01-18T12:54:31.269Z,17.73
2023-01-18T12:57:00.049Z,16.70
2023-01-18T12:59:40.897Z,15.43
2023-01-18T13:02:45.829Z,14.15
2023-01-18T13:05:33.877Z,14.32
2023-01-18T13:08:29.352Z,12.57
2023-01-18T13:11:05.388Z,14.27
2023-01-18T13:13:33.252Z,13.07
2023-01-18T13:16:19.887Z,12.10
2023-01-18T13:19:09.261Z,14.02
2023-01-18T13:21:48.229Z,13.85
2023-01-18T13:24:17.730Z,13.65
2023-01-18T13:26:44.467Z,14.70
2023-01-18T13:29:20.360Z,13.90
2023-01-18T13:31:46.902Z,13.45
2023-01-18T13:34:47.674Z,13.57
2023-01-18T13:37:42.971Z,13.07
2023-01-18T13:40:35.040Z,13.20
2023-01-18T13:43:01.959Z,13.15
2023-01-18T13:45:30.554Z,13.95
2023-01-18T13:48:07.484Z,13.35
2023-01-18T13:50:38.295Z,13.43
2023-01-18T13:53:14.250Z,12.80
2023-01-18T13:55:45.972Z,13.43
2023-01-18T13:58:29.434Z,12.77
2023-01-18T14:00:59.174Z,13.00
2023-01-18T14:03:29.557Z,13.18
2023-01-18T14:05:57.324Z,14.10
2023-01-18T14:08:32.521Z,13.50
2023-01-18T14:11:04.464Z,13.88
2023-01-18T14:13:51.346Z,14.15
2023-01-18T14:16:21.484Z,12.80
2023-01-18T14:18:55.794Z,13.45
2023-01-18T14:21:44.146Z,12.68
2023-01-18T14:24:27.168Z,13.15
2023-01-18T14:26:58.037Z,13.55
2023-01-18T14:29:48.793Z,14.88
2023-01-18T14:32:21.721Z,14.07
2023-01-18T14:35:16.909Z,14.63
2023-01-18T14:37:43.936Z,15.10
2023-01-18T14:40:16.700Z,13.93
2023-01-18T14:42:56.321Z,16.20
2023-01-18T14:45:30.501Z,16.00
2023-01-18T14:48:07.911Z,15.15
2023-01-18T14:50:38.646Z,15.00
2023-01-18T14:53:07.443Z,14.85
2023-01-18T14:55:35.156Z,11.93
2023-01-18T14:58:09.609Z,15.25
2023-01-18T15:00:46.740Z,15.35
2023-01-18T15:03:39.843Z,16.13
2023-01-18T15:06:16.104Z,15.95
2023-01-18T15:08:46.492Z,17.08
2023-01-18T15:11:14.205Z,16.33
2023-01-18T15:13:47.570Z,14.60
2023-01-18T15:16:20.903Z,15.30
2023-01-18T15:18:49.823Z,14.35
2023-01-18T15:21:27.456Z,15.38
2023-01-18T15:24:02.777Z,15.48
2023-01-18T15:26:44.408Z,16.60
2023-01-18T15:29:16.876Z,16.38
2023-01-18T15:32:12.379Z,16.85
2023-01-18T15:34:43.183Z,17.33
2023-01-18T15:37:16.377Z,18.95
2023-01-18T15:39:59.734Z,19.02
2023-01-18T15:42:38.628Z,18.02
2023-01-18T15:45:17.232Z,17.10
2023-01-18T15:47:50.194Z,16.40
2023-01-18T15:50:22.656Z,17.77
2023-01-18T15:53:01.885Z,19.45
2023-01-18T15:55:40.825Z,18.52
2023-01-18T15:58:14.224Z,14.02
2023-01-18T16:00:55.796Z,18.38
2023-01-18T16:03:35.831Z,18.15
2023-01-18T16:06:13.849Z,18.13
2023-01-18T16:09:00.747Z,18.38
2023-01-18T16:11:34.702Z,19.02
2023-01-18T16:14:07.577Z,20.25
2023-01-18T16:16:39.125Z,18.90
2023-01-18T16:19:30.805Z,18.90
2023-01-18T16:22:06.016Z,17.33
2023-01-18T16:24:37.740Z,18.15
2023-01-18T16:27:18.943Z,16.38
2023-01-18T16:29:48.206Z,15.68
2023-01-18T16:32:30.054Z,15.77
2023-01-18T16:35:20.997Z,15.13
2023-01-18T16:37:48.805Z,15.45
2023-01-18T16:40:21.696Z,15.35
2023-01-18T16:42:54.677Z,15.30
2023-01-18T16:45:21.576Z,16.40
2023-01-18T16:47:48.692Z,15.30
2023-01-18T16:50:16.951Z,16.20
2023-01-18T16:52:44.771Z,14.77
2023-01-18T16:55:16.529Z,14.05
2023-01-18T16:57:47.910Z,13.20
2023-01-18T17:00:25.906Z,14.35
2023-01-18T17:02:53.327Z,13.95
2023-01-18T17:05:20.746Z,14.23
2023-01-18T17:07:47.918Z,13.05
2023-01-18T17:10:39.241Z,13.75
2023-01-18T17:13:09.825Z,13.35
2023-01-18T17:15:40.749Z,13.20
2023-01-18T17:18:20.857Z,12.50
2023-01-18T17:20:59.914Z,12.88
2023-01-18T17:23:26.646Z,13.67
2023-01-18T17:25:53.600Z,13.02
2023-01-18T17:28:20.421Z,12.20
2023-01-18T17:30:49.326Z,12.85
2023-01-18T17:33:21.988Z,9.73
2023-01-18T17:35:53.586Z,12.95
2023-01-18T17:38:27.232Z,14.48
2023-01-18T17:40:55.919Z,13.77
2023-01-18T17:43:33.455Z,13.45
2023-01-18T17:46:05.624Z,12.57
2023-01-18T17:48:32.382Z,13.10
2023-01-18T17:50:59.151Z,12.52
2023-01-18T17:53:26.010Z,12.38
2023-01-18T17:55:52.735Z,12.05
2023-01-18T17:58:19.480Z,11.75
2023-01-18T18:00:46.247Z,12.02
2023-01-18T18:03:13.279Z,12.40
2023-01-18T18:05:40.315Z,13.10
2023-01-18T18:08:07.744Z,12.95
2023-01-18T18:10:34.285Z,12.85
2023-01-18T18:13:01.724Z,12.90
2023-01-18T18:15:28.716Z,13.23
2023-01-18T18:17:55.341Z,13.57
2023-01-18T18:20:23.016Z,13.43
2023-01-18T18:22:49.991Z,11.73
2023-01-18T18:25:17.036Z,13.77
2023-01-18T18:27:46.534Z,13.32
2023-01-18T18:30:15.236Z,13.10
2023-01-18T18:32:41.950Z,13.32
2023-01-18T18:35:24.375Z,13.40
2023-01-18T18:37:53.610Z,13.30
2023-01-18T18:40:20.483Z,13.40
2023-01-18T18:43:00.674Z,12.80
2023-01-18T18:45:31.018Z,12.57
2023-01-18T18:47:57.937Z,14.00
2023-01-18T18:50:24.475Z,13.68
2023-01-18T18:52:51.097Z,13.75
2023-01-18T18:55:18.433Z,14.23
2023-01-18T18:57:45.320Z,13.40
2023-01-18T19:00:12.924Z,13.65
2023-01-18T19:02:39.881Z,12.00
2023-01-18T19:05:06.897Z,13.05
2023-01-18T19:07:34.781Z,12.88
2023-01-18T19:10:01.369Z,12.70
2023-01-18T19:12:27.984Z,12.93
2023-01-18T19:14:54.548Z,13.10
2023-01-18T19:17:29.720Z,12.40
2023-01-18T19:19:57.605Z,11.57
2023-01-18T19:22:24.254Z,12.55
2023-01-18T19:24:51.106Z,11.52
2023-01-18T19:27:17.805Z,12.13
2023-01-18T19:29:44.538Z,12.70
2023-01-18T19:32:11.067Z,12.30
2023-01-18T19:34:41.006Z,12.15
2023-01-18T19:37:07.554Z,12.20
2023-01-18T19:39:36.947Z,11.80
2023-01-18T19:42:04.407Z,11.45
2023-01-18T19:44:31.109Z,11.07
2023-01-18T19:46:57.807Z,11.35
2023-01-18T19:49:25.643Z,11.55
2023-01-18T19:51:53.089Z,11.57
2023-01-18T19:54:20.162Z,11.55
2023-01-18T19:56:46.779Z,11.45
2023-01-18T19:59:14.972Z,10.32
2023-01-18T20:01:42.056Z,10.07
2023-01-18T20:04:08.976Z,11.35
2023-01-18T20:06:39.780Z,10.60
2023-01-18T20:09:17.821Z,11.40
2023-01-18T20:11:45.859Z,10.63
2023-01-18T20:14:12.524Z,11.55
2023-01-18T20:16:39.492Z,10.57
2023-01-18T20:19:06.221Z,10.95
2023-01-18T20:21:32.844Z,11.20
2023-01-18T20:23:59.541Z,10.77
2023-01-18T20:26:35.776Z,11.15
2023-01-18T20:29:07.524Z,10.43
2023-01-18T20:31:39.331Z,9.75
2023-01-18T20:34:06.705Z,9.68
2023-01-18T20:36:34.944Z,9.88
2023-01-18T20:39:02.440Z,11.27
2023-01-18T20:41:29.079Z,9.82
2023-01-18T20:43:55.812Z,10.07
2023-01-18T20:46:22.444Z,9.93
2023-01-18T20:48:49.576Z,9.20
2023-01-18T20:51:17.791Z,9.77
2023-01-18T20:53:44.383Z,9.63
2023-01-18T20:56:27.846Z,9.07
2023-01-18T20:58:56.999Z,8.77
2023-01-18T21:01:23.790Z,9.18
2023-01-18T21:03:55.128Z,7.90
2023-01-18T21:06:22.078Z,9.25
2023-01-18T21:08:52.415Z,8.60
2023-01-18T21:11:22.817Z,8.93
2023-01-18T21:13:50.473Z,9.15
2023-01-18T21:16:17.667Z,8.80
2023-01-18T21:18:44.332Z,8.00
2023-01-18T21:21:11.067Z,8.13
2023-01-18T21:23:40.507Z,7.40
2023-01-18T21:26:09.972Z,7.40
2023-01-18T21:28:37.146Z,7.40
2023-01-18T21:31:05.297Z,8.30
2023-01-18T21:33:32.532Z,7.47
2023-01-18T21:36:12.057Z,6.95
2023-01-18T21:41:23.814Z,8.10
2023-01-18T21:44:11.465Z,7.45
2023-01-18T21:46:43.914Z,8.48
2023-01-18T21:49:42.971Z,8.07
2023-01-18T21:52:35.670Z,7.38
2023-01-18T21:55:02.217Z,7.90
2023-01-18T21:57:28.747Z,7.93
2023-01-18T21:59:55.282Z,7.75
2023-01-18T22:02:22.487Z,7.63
2023-01-18T22:05:03.143Z,7.10
2023-01-18T22:07:32.921Z,7.40
2023-01-18T22:10:05.175Z,7.35
2023-01-18T22:12:34.909Z,8.65
2023-01-18T22:15:02.139Z,7.30
2023-01-18T22:17:28.970Z,6.95
2023-01-18T22:19:55.812Z,6.72
2023-01-18T22:22:22.346Z,7.78
2023-01-18T22:24:49.031Z,7.45
2023-01-18T22:27:15.611Z,6.88
2023-01-18T22:29:42.217Z,6.80
2023-01-18T22:32:08.879Z,7.22
2023-01-18T22:34:35.643Z,7.93
2023-01-18T22:37:03.229Z,7.53
2023-01-18T22:39:29.939Z,8.00
2023-01-18T22:41:56.599Z,10.27
2023-01-18T22:44:23.327Z,7.80
2023-01-18T22:46:49.936Z,8.27
2023-01-18T22:49:16.675Z,9.07
2023-01-18T22:51:43.678Z,8.38
2023-01-18T22:54:10.423Z,7.95
2023-01-18T22:56:37.016Z,8.18
2023-01-18T22:59:03.780Z,8.57
2023-01-18T23:01:32.600Z,7.50
2023-01-18T23:04:02.134Z,7.72
2023-01-18T23:06:42.273Z,7.70
2023-01-18T23:09:10.210Z,8.00
2023-01-18T23:11:37.623Z,8.07
2023-01-18T23:14:24.085Z,8.27
2023-01-18T23:17:09.648Z,8.35
2023-01-18T23:19:36.704Z,9.05
2023-01-18T23:22:06.978Z,8.85
2023-01-18T23:24:35.432Z,9.25
2023-01-18T23:27:03.232Z,8.85
2023-01-18T23:29:29.874Z,8.40
2023-01-18T23:31:58.257Z,8.63
2023-01-18T23:34:25.339Z,8.75
2023-01-18T23:36:52.164Z,9.30
2023-01-18T23:39:37.149Z,8.77
2023-01-18T23:42:22.487Z,8.40
2023-01-18T23:45:07.828Z,8.95
2023-01-18T23:47:53.841Z,8.38
2023-01-18T23:50:39.226Z,9.65
2023-01-18T23:53:24.581Z,10.18
2023-01-18T23:55:52.824Z,10.82
2023-01-18T23:58:19.447Z,9.27
